createdAt,value
2022-10-01T00:08:34.692Z,4.9
2022-10-01T00:18:34.698Z,7.2
2022-10-01T00:28:34.713Z,4.9
2022-10-01T00:38:34.698Z,5.9
2022-10-01T00:48:34.715Z,4.5
2022-10-01T00:58:34.714Z,5.7
2022-10-01T01:08:34.723Z,4.9
2022-10-01T01:18:34.729Z,4.8
2022-10-01T01:28:34.730Z,5.0
2022-10-01T01:38:34.738Z,4.8
2022-10-01T01:48:34.739Z,4.3
2022-10-01T01:58:34.747Z,3.5
2022-10-01T02:08:34.749Z,4.4
2022-10-01T02:18:34.753Z,3.6
2022-10-01T02:28:34.788Z,3.1
2022-10-01T02:38:34.773Z,4.7
2022-10-01T02:48:34.768Z,2.4
2022-10-01T03:08:34.787Z,2.1
2022-10-01T03:18:34.919Z,2.8
2022-10-01T03:28:34.800Z,3.0
2022-10-01T03:38:34.804Z,1.4
2022-10-01T03:48:34.822Z,1.3
2022-10-01T03:58:34.809Z,1.4
2022-10-01T04:08:34.817Z,1.8
2022-10-01T04:18:34.832Z,1.0
2022-10-01T04:28:34.833Z,1.5
2022-10-01T04:38:34.835Z,1.2
2022-10-01T04:48:34.843Z,0.9
2022-10-01T04:58:34.853Z,0.9
2022-10-01T05:08:34.854Z,0.9
2022-10-01T05:18:34.859Z,1.1
2022-10-01T05:38:34.873Z,1.7
2022-10-01T05:48:34.880Z,1.6
2022-10-01T05:58:34.885Z,1.3
2022-10-01T06:08:34.892Z,1.6
2022-10-01T06:18:34.916Z,2.2
2022-10-01T06:28:34.900Z,3.2
2022-10-01T06:38:34.907Z,3.5
2022-10-01T06:48:34.923Z,3.4
2022-10-01T06:58:34.929Z,4.6
2022-10-01T07:08:34.932Z,4.9
2022-10-01T07:18:34.944Z,5.2
2022-10-01T07:28:34.943Z,3.4
2022-10-01T07:38:34.956Z,4.1
2022-10-01T07:48:34.958Z,8.7
2022-10-01T07:58:34.967Z,9.3
2022-10-01T08:18:34.973Z,5.5
2022-10-01T08:28:34.981Z,7.9
2022-10-01T08:38:34.991Z,6.1
2022-10-01T08:48:34.993Z,4.3
2022-10-01T08:58:35.004Z,8.0
2022-10-01T09:08:35.007Z,8.3
2022-10-01T09:18:35.005Z,8.4
2022-10-01T09:28:35.010Z,9.8
2022-10-01T09:38:35.028Z,9.2
2022-10-01T09:48:35.252Z,7.3
2022-10-01T09:58:35.042Z,7.6
2022-10-01T10:08:35.052Z,5.5
2022-10-01T10:18:35.062Z,4.8
2022-10-01T10:28:38.547Z,4.0
2022-10-01T10:38:35.075Z,5.6
2022-10-01T10:48:35.082Z,5.4
2022-10-01T10:58:35.100Z,6.7
2022-10-01T11:08:35.101Z,5.3
2022-10-01T11:18:35.108Z,5.2
2022-10-01T11:28:35.112Z,5.3
2022-10-01T11:38:35.116Z,6.1
2022-10-01T11:48:35.127Z,6.9
2022-10-01T11:58:35.132Z,7.3
2022-10-01T12:08:35.139Z,5.6
2022-10-01T12:18:35.141Z,7.4
2022-10-01T12:28:35.371Z,6.3
2022-10-01T12:38:35.148Z,5.7
2022-10-01T12:48:35.152Z,5.5
2022-10-01T12:58:35.167Z,4.8
2022-10-01T13:08:35.175Z,6.1
2022-10-01T13:18:35.184Z,3.8
2022-10-01T13:28:35.184Z,4.5
2022-10-01T13:38:35.184Z,5.0
2022-10-01T13:48:35.215Z,3.7
2022-10-01T13:58:35.206Z,5.7
2022-10-01T14:08:35.200Z,3.6
2022-10-01T14:18:35.227Z,4.2
2022-10-01T14:28:35.213Z,3.5
2022-10-01T14:38:35.224Z,6.5
2022-10-01T14:48:35.220Z,6.0
2022-10-01T14:58:35.235Z,5.5
2022-10-01T15:08:35.240Z,4.6
2022-10-01T15:18:35.243Z,4.9
2022-10-01T15:28:35.252Z,4.9
2022-10-01T15:38:35.259Z,7.2
2022-10-01T15:48:35.258Z,6.2
2022-10-01T15:58:35.264Z,8.1
2022-10-01T16:08:35.289Z,5.2
2022-10-01T16:18:35.279Z,4.2
2022-10-01T16:28:35.284Z,5.4
2022-10-01T16:38:35.284Z,5.8
2022-10-01T16:48:35.292Z,6.4
2022-10-01T16:58:35.292Z,7.7
2022-10-01T17:08:35.290Z,5.1
2022-10-01T17:18:35.305Z,7.6
2022-10-01T17:28:35.459Z,6.3
2022-10-01T17:38:35.306Z,6.8
2022-10-01T17:48:35.315Z,6.3
2022-10-01T17:58:35.319Z,9.3
2022-10-01T18:08:54.039Z,5.7
2022-10-01T18:23:36.509Z,4.2
2022-10-01T18:28:36.508Z,6.5
2022-10-01T18:33:36.518Z,7.1
2022-10-01T18:38:36.516Z,9.3
2022-10-01T18:43:36.524Z,7.2
2022-10-01T18:48:36.521Z,7.4
2022-10-01T18:53:36.517Z,12.3
2022-10-01T18:58:36.520Z,9.3
2022-10-01T19:03:36.524Z,8.6
2022-10-01T19:08:36.524Z,8.1
2022-10-01T19:13:36.530Z,13.3
2022-10-01T19:18:36.536Z,8.2
2022-10-01T19:23:36.536Z,9.9
2022-10-01T19:28:36.537Z,13.7
2022-10-01T19:33:36.568Z,8.3
2022-10-01T19:38:36.545Z,6.8
2022-10-01T19:43:36.545Z,9.4
2022-10-01T19:48:36.549Z,7.8
2022-10-01T19:53:36.548Z,11.5
2022-10-01T19:58:36.554Z,8.3
2022-10-01T20:03:36.555Z,9.3
2022-10-01T20:08:36.575Z,7.9
2022-10-01T20:13:36.561Z,9.0
2022-10-01T20:18:36.561Z,8.2
2022-10-01T20:23:36.569Z,11.9
2022-10-01T20:28:36.680Z,8.9
2022-10-01T20:33:36.577Z,9.7
2022-10-01T20:38:36.576Z,9.4
2022-10-01T20:43:36.579Z,9.4
2022-10-01T20:48:36.584Z,9.8
2022-10-01T20:53:36.575Z,9.7
2022-10-01T20:58:36.587Z,17.0
2022-10-01T21:03:36.586Z,6.9
2022-10-01T21:08:36.589Z,8.3
2022-10-01T21:13:36.626Z,6.1
2022-10-01T21:18:36.595Z,8.0
2022-10-01T21:23:36.601Z,9.8
2022-10-01T21:28:36.606Z,7.3
2022-10-01T21:33:36.601Z,9.2
2022-10-01T21:38:36.608Z,14.9
2022-10-01T21:43:36.605Z,10.8
2022-10-01T21:48:36.602Z,10.2
2022-10-01T21:53:36.613Z,12.8
2022-10-01T21:58:36.609Z,11.9
2022-10-01T22:03:36.613Z,12.0
2022-10-01T22:08:36.622Z,11.6
2022-10-01T22:13:36.634Z,11.5
2022-10-01T22:18:36.626Z,13.7
2022-10-01T22:23:36.626Z,12.6
2022-10-01T22:28:36.628Z,13.7
2022-10-01T22:33:36.632Z,13.5
2022-10-01T22:38:36.637Z,11.8
2022-10-01T22:43:36.641Z,10.3
2022-10-01T22:48:36.644Z,10.3
2022-10-01T22:53:36.653Z,10.0
2022-10-01T22:58:36.647Z,10.9
2022-10-01T23:03:36.645Z,11.3
2022-10-01T23:08:36.651Z,13.4
2022-10-01T23:13:36.661Z,10.4
2022-10-01T23:18:36.650Z,10.8
2022-10-01T23:23:36.662Z,9.2
2022-10-01T23:28:36.658Z,15.2
2022-10-01T23:33:36.671Z,17.1
2022-10-01T23:38:36.668Z,18.2
2022-10-01T23:43:36.680Z,12.3
2022-10-01T23:48:36.685Z,14.8
2022-10-01T23:53:36.682Z,10.1
2022-10-01T23:58:36.682Z,15.9
